createdAt,value
2023-02-19T00:01:38.360Z,3.30
2023-02-19T00:04:08.428Z,3.10
2023-02-19T00:06:36.504Z,5.13
2023-02-19T00:09:04.487Z,3.22
2023-02-19T00:11:34.821Z,4.10
2023-02-19T00:14:03.881Z,4.22
2023-02-19T00:16:34.961Z,4.03
2023-02-19T00:19:04.705Z,3.30
2023-02-19T00:21:32.364Z,4.28
2023-02-19T00:24:02.922Z,3.60
2023-02-19T00:26:30.612Z,3.97
2023-02-19T00:28:58.680Z,2.92
2023-02-19T00:31:32.519Z,3.42
2023-02-19T00:34:05.624Z,4.80
2023-02-19T00:39:02.553Z,3.65
2023-02-19T00:41:30.625Z,3.65
2023-02-19T00:44:04.112Z,3.90
2023-02-19T00:46:34.962Z,3.70
2023-02-19T00:49:04.639Z,3.85
2023-02-19T00:51:35.216Z,4.22
2023-02-19T00:54:03.000Z,4.47
2023-02-19T00:56:30.217Z,5.38
2023-02-19T00:58:57.512Z,4.43
2023-02-19T01:01:24.784Z,3.75
2023-02-19T01:03:52.482Z,4.13
2023-02-19T01:06:21.311Z,4.35
2023-02-19T01:08:48.866Z,4.13
2023-02-19T01:11:17.377Z,4.57
2023-02-19T01:13:45.032Z,3.33
2023-02-19T01:16:21.959Z,4.10
2023-02-19T01:18:49.275Z,4.68
2023-02-19T01:21:21.368Z,4.30
2023-02-19T01:23:49.888Z,3.60
2023-02-19T01:26:20.961Z,4.03
2023-02-19T01:28:48.553Z,4.65
2023-02-19T01:31:19.559Z,4.07
2023-02-19T01:33:52.771Z,3.20
2023-02-19T01:36:20.210Z,3.40
2023-02-19T01:38:47.980Z,3.28
2023-02-19T01:41:18.229Z,3.72
2023-02-19T01:44:08.191Z,4.40
2023-02-19T01:46:40.569Z,4.47
2023-02-19T01:49:16.539Z,3.50
2023-02-19T01:51:59.545Z,3.42
2023-02-19T01:54:29.844Z,3.58
2023-02-19T01:56:58.573Z,4.50
2023-02-19T01:59:26.276Z,4.30
2023-02-19T02:01:53.561Z,4.25
2023-02-19T02:04:20.754Z,4.45
2023-02-19T02:06:54.072Z,2.95
2023-02-19T02:09:43.089Z,5.05
2023-02-19T02:12:10.413Z,3.80
2023-02-19T02:14:41.303Z,3.60
2023-02-19T02:17:24.806Z,4.88
2023-02-19T02:20:10.291Z,3.78
2023-02-19T02:22:51.450Z,4.60
2023-02-19T02:25:48.398Z,4.53
2023-02-19T02:28:15.526Z,4.68
2023-02-19T02:30:50.723Z,4.88
2023-02-19T02:33:31.649Z,4.07
2023-02-19T02:36:01.905Z,4.35
2023-02-19T02:38:33.070Z,3.83
2023-02-19T02:41:00.462Z,3.88
2023-02-19T02:43:28.103Z,4.97
2023-02-19T02:45:55.411Z,3.83
2023-02-19T02:48:45.308Z,4.32
2023-02-19T02:51:16.437Z,3.65
2023-02-19T02:54:20.090Z,4.10
2023-02-19T02:56:49.627Z,4.43
2023-02-19T02:59:20.473Z,3.90
2023-02-19T03:02:22.774Z,4.15
2023-02-19T03:05:49.976Z,3.75
2023-02-19T03:08:26.070Z,5.05
2023-02-19T03:11:25.973Z,3.30
2023-02-19T03:14:29.554Z,3.40
2023-02-19T03:19:50.927Z,2.55
2023-02-19T03:22:23.032Z,3.08
2023-02-19T03:25:18.281Z,3.92
2023-02-19T03:27:49.558Z,3.50
2023-02-19T03:30:27.483Z,4.57
2023-02-19T03:33:08.316Z,3.15
2023-02-19T03:35:43.459Z,3.10
2023-02-19T03:38:25.879Z,3.35
2023-02-19T03:41:06.346Z,3.13
2023-02-19T03:43:47.738Z,3.38
2023-02-19T03:46:23.760Z,3.63
2023-02-19T03:48:59.683Z,3.22
2023-02-19T03:51:54.635Z,3.17
2023-02-19T03:54:49.716Z,3.03
2023-02-19T03:57:28.246Z,3.17
2023-02-19T04:00:23.262Z,2.95
2023-02-19T04:03:29.573Z,3.28
2023-02-19T04:06:07.064Z,3.75
2023-02-19T04:08:36.895Z,3.08
2023-02-19T04:11:07.147Z,2.83
2023-02-19T04:13:43.604Z,3.10
2023-02-19T04:16:20.367Z,3.33
2023-02-19T04:18:52.143Z,2.38
2023-02-19T04:21:22.616Z,3.10
2023-02-19T04:23:50.298Z,3.40
2023-02-19T04:26:20.197Z,3.38
2023-02-19T04:28:47.427Z,3.40
2023-02-19T04:31:15.863Z,2.65
2023-02-19T04:33:43.148Z,2.88
2023-02-19T04:36:11.866Z,3.25
2023-02-19T04:38:39.119Z,2.85
2023-02-19T04:41:06.380Z,2.38
2023-02-19T04:43:33.618Z,2.95
2023-02-19T04:46:02.223Z,1.90
2023-02-19T04:48:29.708Z,2.80
2023-02-19T04:50:56.998Z,2.20
2023-02-19T04:53:24.210Z,2.67
2023-02-19T04:55:53.400Z,2.47
2023-02-19T04:58:21.362Z,2.72
2023-02-19T05:00:52.244Z,1.98
2023-02-19T05:03:19.512Z,2.60
2023-02-19T05:05:46.878Z,2.13
2023-02-19T05:08:14.114Z,1.75
2023-02-19T05:10:41.496Z,2.15
2023-02-19T05:13:09.004Z,2.05
2023-02-19T05:15:36.773Z,2.30
2023-02-19T05:18:04.126Z,2.78
2023-02-19T05:20:31.299Z,2.00
2023-02-19T05:22:58.484Z,1.88
2023-02-19T05:25:25.715Z,2.38
2023-02-19T05:28:12.834Z,2.17
2023-02-19T05:30:40.000Z,1.88
2023-02-19T05:33:07.158Z,2.15
2023-02-19T05:35:34.316Z,1.88
2023-02-19T05:38:01.476Z,2.33
2023-02-19T05:40:28.675Z,1.77
2023-02-19T05:42:55.828Z,1.85
2023-02-19T05:45:23.060Z,2.03
2023-02-19T05:47:50.664Z,2.22
2023-02-19T05:50:18.164Z,1.50
2023-02-19T05:52:45.351Z,2.10
2023-02-19T05:55:12.720Z,1.58
2023-02-19T05:57:43.527Z,1.70
2023-02-19T06:00:17.202Z,1.83
2023-02-19T06:02:44.630Z,2.00
2023-02-19T06:05:12.220Z,2.00
2023-02-19T06:07:39.801Z,2.05
2023-02-19T06:10:07.880Z,2.45
2023-02-19T06:12:35.080Z,1.65
2023-02-19T06:15:04.563Z,1.50
2023-02-19T06:17:32.983Z,1.90
2023-02-19T06:20:01.256Z,1.73
2023-02-19T06:22:28.537Z,1.77
2023-02-19T06:24:55.799Z,3.17
2023-02-19T06:27:23.015Z,2.53
2023-02-19T06:29:50.372Z,1.60
2023-02-19T06:32:19.005Z,2.15
2023-02-19T06:34:46.262Z,2.20
2023-02-19T06:37:13.466Z,2.53
2023-02-19T06:39:40.619Z,3.10
2023-02-19T06:42:07.842Z,1.70
2023-02-19T06:44:35.139Z,2.03
2023-02-19T06:47:02.405Z,2.15
2023-02-19T06:49:29.642Z,1.58
2023-02-19T06:51:56.898Z,2.13
2023-02-19T06:54:25.883Z,1.55
2023-02-19T06:56:53.244Z,1.67
2023-02-19T06:59:20.513Z,1.75
2023-02-19T07:01:47.858Z,2.00
2023-02-19T07:04:15.928Z,1.83
2023-02-19T07:06:43.589Z,3.10
2023-02-19T07:09:11.762Z,2.33
2023-02-19T07:11:40.216Z,2.35
2023-02-19T07:14:13.322Z,1.52
2023-02-19T07:16:40.493Z,1.80
2023-02-19T07:19:07.775Z,1.52
2023-02-19T07:21:37.846Z,1.70
2023-02-19T07:24:05.854Z,2.08
2023-02-19T07:26:33.074Z,1.77
2023-02-19T07:29:00.573Z,2.03
2023-02-19T07:31:28.902Z,1.83
2023-02-19T07:33:57.553Z,2.05
2023-02-19T07:36:25.855Z,1.70
2023-02-19T07:38:57.409Z,1.52
2023-02-19T07:41:26.022Z,1.90
2023-02-19T07:46:24.153Z,1.60
2023-02-19T07:48:51.423Z,1.92
2023-02-19T07:51:20.072Z,2.22
2023-02-19T07:53:48.680Z,1.45
2023-02-19T07:56:16.174Z,2.03
2023-02-19T07:58:43.507Z,1.80
2023-02-19T08:01:19.707Z,2.05
2023-02-19T08:03:48.291Z,1.63
2023-02-19T08:06:17.343Z,1.75
2023-02-19T08:08:44.665Z,1.75
2023-02-19T08:11:30.292Z,1.90
2023-02-19T08:13:57.515Z,1.70
2023-02-19T08:16:40.749Z,1.88
2023-02-19T08:19:10.083Z,2.33
2023-02-19T08:21:37.326Z,1.52
2023-02-19T08:24:04.788Z,1.65
2023-02-19T08:26:33.584Z,2.35
2023-02-19T08:29:00.822Z,1.65
2023-02-19T08:31:28.179Z,1.83
2023-02-19T08:33:55.377Z,2.35
2023-02-19T08:36:22.543Z,2.60
2023-02-19T08:38:49.729Z,2.10
2023-02-19T08:41:16.977Z,1.88
2023-02-19T08:43:44.825Z,1.77
2023-02-19T08:46:12.762Z,2.03
2023-02-19T08:48:40.619Z,1.52
2023-02-19T08:51:10.295Z,1.70
2023-02-19T08:53:39.128Z,1.58
2023-02-19T08:56:08.039Z,1.90
2023-02-19T08:58:36.204Z,1.60
2023-02-19T09:01:04.306Z,1.90
2023-02-19T09:03:31.478Z,1.55
2023-02-19T09:05:58.583Z,1.73
2023-02-19T09:08:25.726Z,1.05
2023-02-19T09:11:01.162Z,1.55
2023-02-19T09:13:28.562Z,1.95
2023-02-19T09:15:57.182Z,2.10
2023-02-19T09:18:25.940Z,2.50
2023-02-19T09:20:53.315Z,1.63
2023-02-19T09:23:20.583Z,2.97
2023-02-19T09:25:47.856Z,1.50
2023-02-19T09:28:16.965Z,1.60
2023-02-19T09:30:44.212Z,1.60
2023-02-19T09:33:11.460Z,1.60
2023-02-19T09:35:40.633Z,1.33
2023-02-19T09:38:10.535Z,1.70
2023-02-19T09:40:38.964Z,1.48
2023-02-19T09:43:17.633Z,1.75
2023-02-19T09:45:44.914Z,1.10
2023-02-19T09:48:12.722Z,1.30
2023-02-19T09:50:43.866Z,1.20
2023-02-19T09:53:41.996Z,1.27
2023-02-19T09:56:09.659Z,1.65
2023-02-19T09:58:52.990Z,1.63
2023-02-19T10:01:22.246Z,2.15
2023-02-19T10:03:49.609Z,1.30
2023-02-19T10:06:24.088Z,1.40
2023-02-19T10:09:02.811Z,1.88
2023-02-19T10:11:30.026Z,1.52
2023-02-19T10:14:03.157Z,1.00
2023-02-19T10:16:31.087Z,1.10
2023-02-19T10:18:58.363Z,1.30
2023-02-19T10:21:27.315Z,1.25
2023-02-19T10:23:58.281Z,1.00
2023-02-19T10:26:25.601Z,0.90
2023-02-19T10:28:54.261Z,0.93
2023-02-19T10:31:25.542Z,1.15
2023-02-19T10:33:57.993Z,1.00
2023-02-19T10:36:54.721Z,1.15
2023-02-19T10:39:49.739Z,1.48
2023-02-19T10:42:23.089Z,1.02
2023-02-19T10:45:01.836Z,1.30
2023-02-19T10:47:31.759Z,1.15
2023-02-19T10:50:03.425Z,0.93
2023-02-19T10:52:36.266Z,1.02
2023-02-19T10:55:21.426Z,1.10
2023-02-19T10:57:50.425Z,1.10
2023-02-19T11:00:26.951Z,1.15
2023-02-19T11:03:14.706Z,1.10
2023-02-19T11:06:01.415Z,1.20
2023-02-19T11:08:29.311Z,1.50
2023-02-19T11:10:56.521Z,1.02
2023-02-19T11:13:31.047Z,1.38
2023-02-19T11:15:59.856Z,1.25
2023-02-19T11:18:36.386Z,0.93
2023-02-19T11:21:06.190Z,1.13
2023-02-19T11:23:37.484Z,1.15
2023-02-19T11:26:16.125Z,0.88
2023-02-19T11:28:44.290Z,0.80
2023-02-19T11:31:24.497Z,1.30
2023-02-19T11:33:59.426Z,1.33
2023-02-19T11:36:36.991Z,0.85
2023-02-19T11:39:16.084Z,0.98
2023-02-19T11:42:02.740Z,1.13
2023-02-19T11:44:48.022Z,0.93
2023-02-19T11:47:52.802Z,0.90
2023-02-19T11:50:23.258Z,1.40
2023-02-19T11:53:15.960Z,0.82
2023-02-19T11:58:31.263Z,1.40
2023-02-19T12:01:32.126Z,0.98
2023-02-19T12:04:37.818Z,1.67
2023-02-19T12:07:26.731Z,0.93
2023-02-19T12:10:08.904Z,0.73
2023-02-19T12:13:21.872Z,0.60
2023-02-19T12:19:19.243Z,0.65
2023-02-19T12:21:54.350Z,0.98
2023-02-19T12:24:30.616Z,0.80
2023-02-19T12:27:20.258Z,0.77
2023-02-19T12:29:56.389Z,0.80
2023-02-19T12:32:54.055Z,0.68
2023-02-19T12:36:09.025Z,0.63
2023-02-19T12:38:47.829Z,0.43
2023-02-19T12:41:17.721Z,0.77
2023-02-19T12:43:53.387Z,0.70
2023-02-19T12:46:27.963Z,0.82
2023-02-19T12:49:02.689Z,0.73
2023-02-19T12:51:43.645Z,0.75
2023-02-19T12:54:23.826Z,0.95
2023-02-19T12:57:08.892Z,0.95
2023-02-19T12:59:42.120Z,0.70
2023-02-19T13:02:45.434Z,0.98
2023-02-19T13:05:20.516Z,0.68
2023-02-19T13:07:53.847Z,0.70
2023-02-19T13:10:29.300Z,1.02
2023-02-19T13:13:00.529Z,1.02
2023-02-19T13:15:38.681Z,1.02
2023-02-19T13:18:13.788Z,0.90
2023-02-19T13:20:46.784Z,0.73
2023-02-19T13:23:42.228Z,0.80
2023-02-19T13:26:33.639Z,0.70
2023-02-19T13:29:26.301Z,1.30
2023-02-19T13:34:51.198Z,0.90
2023-02-19T13:39:54.653Z,0.60
2023-02-19T13:42:36.452Z,0.98
2023-02-19T13:45:06.502Z,0.60
2023-02-19T13:47:54.726Z,0.80
2023-02-19T13:50:24.969Z,0.88
2023-02-19T13:52:54.325Z,1.13
2023-02-19T13:55:44.162Z,1.27
2023-02-19T13:58:33.142Z,1.08
2023-02-19T14:01:04.523Z,1.13
2023-02-19T14:03:37.819Z,1.37
2023-02-19T14:06:07.477Z,1.40
2023-02-19T14:08:57.478Z,1.27
2023-02-19T14:11:43.025Z,1.13
2023-02-19T14:14:25.685Z,1.27
2023-02-19T14:17:04.759Z,1.50
2023-02-19T14:20:22.374Z,1.20
2023-02-19T14:23:02.568Z,1.27
2023-02-19T14:25:59.487Z,1.33
2023-02-19T14:28:42.881Z,1.10
2023-02-19T14:31:32.330Z,1.90
2023-02-19T14:34:07.089Z,1.50
2023-02-19T14:36:47.813Z,1.90
2023-02-19T14:39:19.863Z,1.33
2023-02-19T14:41:56.690Z,1.20
2023-02-19T14:44:31.022Z,1.30
2023-02-19T14:47:04.241Z,0.90
2023-02-19T14:49:43.493Z,1.25
2023-02-19T14:52:21.307Z,1.50
2023-02-19T14:54:51.541Z,1.40
2023-02-19T14:57:23.694Z,1.27
2023-02-19T15:00:22.977Z,1.30
2023-02-19T15:02:52.046Z,1.27
2023-02-19T15:05:24.315Z,1.30
2023-02-19T15:10:20.241Z,1.80
2023-02-19T15:12:54.688Z,2.08
2023-02-19T15:15:28.292Z,1.30
2023-02-19T15:17:57.244Z,2.00
2023-02-19T15:20:28.464Z,1.58
2023-02-19T15:22:58.503Z,1.60
2023-02-19T15:25:34.208Z,1.05
2023-02-19T15:28:19.613Z,1.58
2023-02-19T15:30:47.290Z,1.60
2023-02-19T15:33:19.625Z,1.30
2023-02-19T15:38:18.712Z,1.88
2023-02-19T15:40:46.984Z,1.75
2023-02-19T15:43:23.581Z,2.20
2023-02-19T15:45:54.146Z,1.40
2023-02-19T15:48:29.760Z,1.35
2023-02-19T15:51:08.233Z,1.27
2023-02-19T15:53:42.029Z,2.20
2023-02-19T15:56:11.467Z,2.05
2023-02-19T15:58:50.543Z,1.67
2023-02-19T16:01:21.738Z,2.10
2023-02-19T16:03:49.110Z,2.00
2023-02-19T16:06:18.466Z,2.20
2023-02-19T16:09:03.124Z,1.40
2023-02-19T16:11:39.159Z,1.55
2023-02-19T16:14:32.942Z,1.85
2023-02-19T16:17:12.290Z,1.60
2023-02-19T16:19:57.771Z,1.55
2023-02-19T16:22:28.120Z,1.35
2023-02-19T16:25:06.532Z,1.48
2023-02-19T16:27:38.629Z,1.73
2023-02-19T16:30:30.793Z,1.10
2023-02-19T16:33:36.708Z,1.80
2023-02-19T16:36:20.094Z,1.60
2023-02-19T16:39:00.301Z,2.33
2023-02-19T16:41:27.499Z,1.00
2023-02-19T16:43:57.573Z,1.13
2023-02-19T16:46:25.004Z,1.63
2023-02-19T16:48:52.400Z,1.38
2023-02-19T16:51:26.942Z,1.23
2023-02-19T16:53:54.235Z,1.67
2023-02-19T16:56:23.217Z,1.30
2023-02-19T16:58:50.738Z,1.30
2023-02-19T17:01:18.383Z,1.23
2023-02-19T17:03:47.862Z,1.33
2023-02-19T17:06:16.100Z,1.20
2023-02-19T17:08:44.878Z,1.48
2023-02-19T17:11:14.989Z,1.35
2023-02-19T17:13:43.396Z,1.40
2023-02-19T17:16:22.463Z,1.48
2023-02-19T17:18:50.976Z,1.63
2023-02-19T17:21:29.311Z,2.38
2023-02-19T17:23:59.434Z,1.52
2023-02-19T17:26:30.165Z,2.63
2023-02-19T17:28:58.695Z,2.40
2023-02-19T17:31:26.472Z,2.63
2023-02-19T17:33:53.813Z,2.60
2023-02-19T17:36:32.133Z,2.53
2023-02-19T17:39:00.928Z,1.88
2023-02-19T17:41:28.334Z,2.40
2023-02-19T17:43:57.194Z,2.65
2023-02-19T17:46:26.666Z,2.65
2023-02-19T17:48:54.674Z,2.28
2023-02-19T17:51:22.283Z,2.20
2023-02-19T17:53:50.124Z,2.08
2023-02-19T17:56:20.130Z,2.17
2023-02-19T17:58:47.735Z,2.50
2023-02-19T18:01:15.511Z,2.17
2023-02-19T18:03:43.163Z,2.63
2023-02-19T18:06:10.428Z,2.80
2023-02-19T18:08:37.792Z,2.42
2023-02-19T18:11:06.979Z,2.70
2023-02-19T18:13:34.363Z,2.30
2023-02-19T18:16:01.545Z,3.30
2023-02-19T18:18:30.390Z,3.25
2023-02-19T18:20:57.909Z,3.38
2023-02-19T18:23:25.387Z,3.58
2023-02-19T18:25:52.860Z,3.65
2023-02-19T18:28:20.195Z,4.75
2023-02-19T18:30:47.723Z,4.88
2023-02-19T18:33:15.272Z,5.55
2023-02-19T18:35:42.533Z,4.93
2023-02-19T18:38:09.774Z,4.15
2023-02-19T18:40:37.144Z,5.07
2023-02-19T18:43:05.677Z,4.10
2023-02-19T18:45:36.156Z,4.00
2023-02-19T18:48:05.179Z,4.68
2023-02-19T18:50:33.538Z,4.50
2023-02-19T18:53:00.784Z,4.43
2023-02-19T18:55:28.100Z,4.05
2023-02-19T18:57:55.487Z,6.03
2023-02-19T19:00:26.514Z,6.80
2023-02-19T19:02:58.721Z,4.97
2023-02-19T19:05:26.204Z,4.82
2023-02-19T19:07:59.366Z,4.88
2023-02-19T19:10:26.880Z,5.03
2023-02-19T19:12:54.888Z,5.18
2023-02-19T19:15:22.789Z,5.18
2023-02-19T19:17:51.106Z,5.47
2023-02-19T19:20:20.460Z,5.00
2023-02-19T19:22:52.426Z,4.88
2023-02-19T19:25:21.210Z,4.45
2023-02-19T19:27:50.790Z,3.72
2023-02-19T19:30:20.051Z,4.85
2023-02-19T19:32:52.398Z,3.92
2023-02-19T19:35:21.040Z,4.13
2023-02-19T19:37:48.693Z,3.55
2023-02-19T19:40:17.833Z,3.88
2023-02-19T19:42:45.080Z,3.72
2023-02-19T19:45:13.846Z,3.55
2023-02-19T19:47:41.137Z,3.03
2023-02-19T19:50:08.896Z,4.53
2023-02-19T19:52:36.243Z,3.70
2023-02-19T19:55:03.470Z,3.90
2023-02-19T19:57:30.699Z,4.38
2023-02-19T19:59:57.908Z,3.90
2023-02-19T20:02:25.187Z,4.05
2023-02-19T20:04:52.405Z,4.68
2023-02-19T20:07:19.785Z,3.58
2023-02-19T20:09:48.932Z,3.92
2023-02-19T20:12:17.098Z,4.40
2023-02-19T20:14:46.135Z,4.20
2023-02-19T20:17:13.610Z,4.75
2023-02-19T20:19:40.824Z,5.57
2023-02-19T20:22:08.483Z,4.22
2023-02-19T20:24:35.764Z,4.00
2023-02-19T20:27:03.277Z,4.35
2023-02-19T20:29:33.210Z,4.15
2023-02-19T20:32:02.567Z,4.00
2023-02-19T20:34:30.595Z,3.90
2023-02-19T20:36:58.055Z,4.28
2023-02-19T20:39:28.953Z,4.32
2023-02-19T20:41:57.692Z,5.68
2023-02-19T20:44:26.322Z,5.55
2023-02-19T20:46:54.220Z,4.95
2023-02-19T20:49:23.623Z,4.43
2023-02-19T20:51:58.158Z,4.57
2023-02-19T20:54:29.183Z,3.70
2023-02-19T20:56:59.337Z,4.18
2023-02-19T20:59:30.856Z,5.25
2023-02-19T21:01:59.121Z,4.20
2023-02-19T21:04:26.935Z,3.70
2023-02-19T21:06:54.327Z,4.55
2023-02-19T21:09:23.607Z,3.95
2023-02-19T21:11:51.598Z,4.55
2023-02-19T21:14:19.300Z,4.70
2023-02-19T21:16:47.084Z,3.45
2023-02-19T21:19:14.530Z,3.83
2023-02-19T21:21:41.825Z,3.17
2023-02-19T21:24:10.109Z,3.83
2023-02-19T21:26:39.858Z,4.57
2023-02-19T21:29:10.672Z,4.13
2023-02-19T21:31:47.059Z,4.75
2023-02-19T21:34:16.357Z,4.10
2023-02-19T21:36:44.706Z,3.83
2023-02-19T21:39:16.892Z,4.53
2023-02-19T21:41:45.121Z,3.88
2023-02-19T21:44:12.969Z,3.30
2023-02-19T21:46:40.491Z,2.78
2023-02-19T21:49:08.046Z,4.22
2023-02-19T21:51:37.892Z,3.58
2023-02-19T21:54:07.594Z,2.80
2023-02-19T21:56:36.762Z,4.57
2023-02-19T21:59:04.323Z,3.80
2023-02-19T22:01:35.525Z,3.38
2023-02-19T22:04:02.689Z,2.78
2023-02-19T22:06:30.954Z,3.78
2023-02-19T22:08:58.606Z,3.55
2023-02-19T22:11:26.284Z,3.38
2023-02-19T22:13:54.136Z,3.78
2023-02-19T22:16:21.719Z,3.80
2023-02-19T22:18:51.351Z,4.55
2023-02-19T22:21:19.970Z,4.47
2023-02-19T22:23:48.388Z,4.25
2023-02-19T22:26:27.711Z,3.75
2023-02-19T22:28:56.027Z,4.10
2023-02-19T22:31:24.837Z,4.13
2023-02-19T22:33:53.173Z,3.80
2023-02-19T22:36:21.651Z,4.07
2023-02-19T22:38:49.300Z,4.30
2023-02-19T22:41:17.742Z,3.30
2023-02-19T22:43:45.232Z,4.03
2023-02-19T22:46:15.697Z,3.53
2023-02-19T22:48:43.201Z,4.38
2023-02-19T22:51:20.028Z,4.07
2023-02-19T22:53:52.915Z,4.47
2023-02-19T22:56:22.322Z,3.92
2023-02-19T22:58:49.970Z,4.18
2023-02-19T23:01:17.922Z,3.50
2023-02-19T23:03:52.487Z,3.20
2023-02-19T23:06:25.544Z,3.10
2023-02-19T23:08:54.110Z,3.33
2023-02-19T23:11:27.108Z,2.75
2023-02-19T23:13:54.775Z,3.33
2023-02-19T23:16:22.443Z,2.97
2023-02-19T23:18:50.979Z,4.38
2023-02-19T23:21:19.265Z,3.20
2023-02-19T23:23:47.376Z,3.63
2023-02-19T23:26:16.546Z,3.30
2023-02-19T23:28:44.412Z,2.95
2023-02-19T23:31:13.229Z,3.10
2023-02-19T23:33:40.662Z,3.63
2023-02-19T23:36:08.549Z,3.05
2023-02-19T23:38:35.772Z,3.28
2023-02-19T23:41:03.127Z,3.10
2023-02-19T23:43:30.490Z,2.65
2023-02-19T23:45:57.907Z,2.65
2023-02-19T23:48:25.108Z,2.83
2023-02-19T23:50:52.323Z,3.28
2023-02-19T23:53:19.759Z,3.33
2023-02-19T23:55:47.465Z,3.83
2023-02-19T23:58:14.735Z,2.40
